createdAt,value
2018-11-27T00:02:07.011Z,83.62
2018-11-27T00:07:11.705Z,83.41
2018-11-27T00:12:16.321Z,84.34
2018-11-27T00:17:21.393Z,84.42
2018-11-27T00:22:26.226Z,83.97
2018-11-27T00:27:33.698Z,84.71
2018-11-27T00:32:39.128Z,84.51
2018-11-27T00:43:18.795Z,83.43
2018-11-27T00:48:23.363Z,83.67
2018-11-27T00:53:28.729Z,83.21
2018-11-27T00:58:33.259Z,84.02
2018-11-27T01:03:37.902Z,83.62
2018-11-27T01:08:42.892Z,83.10
2018-11-27T01:13:47.709Z,82.94
2018-11-27T01:18:52.682Z,82.78
2018-11-27T01:23:59.538Z,82.61
2018-11-27T01:29:05.431Z,81.98
2018-11-27T01:34:11.068Z,82.58
2018-11-27T01:39:21.199Z,82.71
2018-11-27T01:44:26.843Z,82.60
2018-11-27T01:49:32.491Z,82.79
2018-11-27T01:54:36.867Z,82.03
2018-11-27T01:59:42.306Z,82.91
2018-11-27T02:04:48.510Z,82.41
2018-11-27T02:09:53.256Z,82.94
2018-11-27T02:14:57.761Z,83.32
2018-11-27T02:20:02.478Z,83.23
2018-11-27T02:25:10.656Z,81.38
2018-11-27T02:30:16.579Z,81.69
2018-11-27T02:35:23.475Z,80.63
2018-11-27T02:40:27.935Z,81.24
2018-11-27T02:45:32.450Z,80.44
2018-11-27T02:50:37.030Z,80.58
2018-11-27T02:55:41.510Z,81.42
2018-11-27T03:00:46.110Z,81.03
2018-11-27T03:05:50.926Z,80.74
2018-11-27T03:10:55.808Z,81.41
2018-11-27T03:16:01.415Z,81.19
2018-11-27T03:21:06.803Z,80.33
2018-11-27T03:26:11.300Z,78.78
2018-11-27T03:31:15.897Z,78.97
2018-11-27T03:36:20.552Z,78.02
2018-11-27T03:41:25.692Z,77.16
2018-11-27T03:46:43.578Z,77.06
2018-11-27T03:51:48.368Z,77.85
2018-11-27T03:56:52.922Z,77.98
2018-11-27T04:01:57.790Z,77.95
2018-11-27T04:07:03.116Z,78.95
2018-11-27T04:12:07.681Z,78.18
2018-11-27T04:17:12.315Z,78.86
2018-11-27T04:22:17.154Z,78.29
2018-11-27T04:27:21.591Z,79.32
2018-11-27T04:32:26.265Z,79.25
2018-11-27T04:37:30.903Z,80.39
2018-11-27T04:42:35.631Z,80.48
2018-11-27T04:47:40.139Z,82.20
2018-11-27T04:52:44.825Z,82.42
2018-11-27T04:57:54.371Z,83.18
2018-11-27T05:02:59.873Z,84.31
2018-11-27T05:08:04.325Z,84.72
2018-11-27T05:13:08.862Z,84.50
2018-11-27T05:18:13.206Z,84.30
2018-11-27T05:23:17.542Z,84.78
2018-11-27T05:28:22.188Z,85.57
2018-11-27T05:33:26.813Z,85.16
2018-11-27T05:38:31.629Z,85.47
2018-11-27T05:43:36.083Z,85.12
2018-11-27T05:48:40.914Z,84.79
2018-11-27T05:53:45.694Z,84.32
2018-11-27T05:58:50.532Z,84.16
2018-11-27T06:03:55.456Z,84.49
2018-11-27T06:08:59.976Z,84.83
2018-11-27T06:14:05.897Z,85.04
2018-11-27T06:19:10.914Z,85.43
2018-11-27T06:24:16.227Z,84.28
2018-11-27T06:29:26.723Z,85.08
2018-11-27T06:34:31.652Z,85.38
2018-11-27T06:39:36.232Z,84.52
2018-11-27T06:44:41.114Z,84.84
2018-11-27T06:49:45.588Z,83.76
2018-11-27T06:54:51.912Z,84.48
2018-11-27T06:59:58.332Z,85.25
2018-11-27T07:05:02.799Z,85.17
2018-11-27T07:10:25.661Z,85.55
2018-11-27T07:15:30.281Z,85.94
2018-11-27T07:20:57.111Z,84.59
2018-11-27T07:26:01.547Z,85.22
2018-11-27T07:31:06.112Z,84.95
2018-11-27T07:36:10.427Z,85.40
2018-11-27T07:41:14.984Z,84.71
2018-11-27T07:46:19.367Z,84.15
2018-11-27T07:51:24.024Z,84.07
2018-11-27T07:56:28.692Z,83.67
2018-11-27T08:01:35.067Z,84.11
2018-11-27T08:06:40.187Z,83.25
2018-11-27T08:11:44.860Z,82.95
2018-11-27T08:16:49.265Z,83.36
2018-11-27T08:21:53.813Z,82.17
2018-11-27T08:26:58.289Z,82.00
2018-11-27T08:32:02.878Z,81.86
2018-11-27T08:37:07.442Z,81.08
2018-11-27T08:42:11.925Z,81.21
2018-11-27T08:47:16.454Z,79.18
2018-11-27T08:52:20.990Z,78.42
2018-11-27T08:57:25.388Z,77.30
2018-11-27T09:02:30.003Z,77.01
2018-11-27T09:07:34.423Z,77.14
2018-11-27T09:12:38.853Z,76.92
2018-11-27T09:17:44.926Z,77.63
2018-11-27T09:22:49.476Z,77.35
2018-11-27T09:27:59.244Z,77.70
2018-11-27T09:33:03.911Z,76.37
2018-11-27T09:38:09.090Z,74.60
2018-11-27T09:43:13.589Z,74.73
2018-11-27T09:48:18.418Z,74.02
2018-11-27T09:53:22.883Z,73.84
2018-11-27T09:58:27.638Z,72.97
2018-11-27T10:03:32.396Z,73.04
2018-11-27T10:08:37.131Z,73.47
2018-11-27T10:13:41.640Z,73.24
2018-11-27T10:18:51.013Z,73.52
2018-11-27T10:23:55.441Z,73.91
2018-11-27T10:28:59.901Z,74.85
2018-11-27T10:34:05.956Z,75.87
2018-11-27T10:39:10.293Z,76.38
2018-11-27T10:44:14.833Z,76.11
2018-11-27T10:49:21.113Z,76.61
2018-11-27T10:54:25.549Z,75.64
2018-11-27T10:59:29.914Z,73.37
2018-11-27T11:04:35.893Z,74.11
2018-11-27T11:09:42.017Z,71.50
2018-11-27T11:14:46.686Z,71.42
2018-11-27T11:19:51.113Z,70.78
2018-11-27T11:24:55.510Z,69.07
2018-11-27T11:30:12.080Z,68.53
2018-11-27T11:35:17.504Z,67.25
2018-11-27T11:40:23.988Z,66.68
2018-11-27T11:45:29.200Z,66.41
2018-11-27T11:50:35.151Z,66.18
2018-11-27T11:55:40.344Z,66.61
2018-11-27T12:00:56.248Z,66.39
2018-11-27T12:06:02.055Z,68.25
2018-11-27T12:11:06.476Z,69.31
2018-11-27T12:16:11.858Z,70.17
2018-11-27T12:21:18.308Z,70.62
2018-11-27T12:26:26.609Z,71.46
2018-11-27T12:31:31.327Z,72.29
2018-11-27T12:36:35.728Z,73.62
2018-11-27T12:41:40.177Z,73.89
2018-11-27T12:46:45.490Z,74.39
2018-11-27T12:51:51.084Z,74.25
2018-11-27T12:56:55.740Z,74.71
2018-11-27T13:02:01.112Z,74.44
2018-11-27T13:07:07.060Z,75.05
2018-11-27T13:12:11.814Z,74.53
2018-11-27T13:17:16.384Z,73.95
2018-11-27T13:22:21.420Z,73.98
2018-11-27T13:27:25.736Z,73.82
2018-11-27T13:32:30.825Z,72.21
2018-11-27T13:37:35.169Z,71.40
2018-11-27T13:42:39.915Z,71.90
2018-11-27T13:47:44.813Z,72.86
2018-11-27T13:52:49.126Z,73.65
2018-11-27T13:57:53.435Z,73.72
2018-11-27T14:08:13.904Z,72.03
2018-11-27T14:13:19.211Z,71.55
2018-11-27T14:18:24.025Z,72.24
2018-11-27T14:23:28.406Z,72.03
2018-11-27T14:28:32.763Z,72.37
2018-11-27T14:33:37.145Z,73.64
2018-11-27T14:38:41.769Z,73.93
2018-11-27T14:43:46.093Z,75.16
2018-11-27T14:48:50.445Z,75.62
2018-11-27T14:53:54.687Z,75.44
2018-11-27T14:58:59.224Z,75.30
2018-11-27T15:04:03.961Z,75.22
2018-11-27T15:09:10.282Z,75.53
2018-11-27T15:14:14.606Z,75.78
2018-11-27T15:19:28.210Z,75.80
2018-11-27T15:24:32.767Z,76.47
2018-11-27T15:29:37.357Z,77.01
2018-11-27T15:34:42.121Z,77.24
2018-11-27T15:39:46.969Z,77.48
2018-11-27T15:44:51.460Z,77.51
2018-11-27T15:49:56.016Z,77.23
2018-11-27T15:55:01.775Z,78.15
2018-11-27T16:00:16.135Z,77.65
2018-11-27T16:05:20.651Z,77.78
2018-11-27T16:10:25.190Z,77.59
2018-11-27T16:15:29.823Z,77.87
2018-11-27T16:20:34.358Z,77.70
2018-11-27T16:25:38.903Z,78.37
2018-11-27T16:30:43.238Z,78.33
2018-11-27T16:35:47.575Z,78.12
2018-11-27T16:40:52.086Z,78.66
2018-11-27T16:45:56.393Z,78.68
2018-11-27T16:51:00.897Z,78.78
2018-11-27T16:56:06.414Z,78.28
2018-11-27T17:01:12.339Z,78.30
2018-11-27T17:06:18.169Z,78.71
2018-11-27T17:11:24.005Z,78.58
2018-11-27T17:16:28.780Z,79.11
2018-11-27T17:21:33.627Z,79.25
2018-11-27T17:26:40.563Z,79.24
2018-11-27T17:31:45.318Z,79.72
2018-11-27T17:36:50.072Z,79.59
2018-11-27T17:41:54.966Z,80.33
2018-11-27T17:46:59.300Z,80.03
2018-11-27T17:52:04.030Z,80.08
2018-11-27T17:57:08.693Z,79.53
2018-11-27T18:02:13.180Z,79.12
2018-11-27T18:07:17.784Z,79.66
2018-11-27T18:12:22.244Z,79.50
2018-11-27T18:17:26.886Z,78.63
2018-11-27T18:22:31.562Z,79.15
2018-11-27T18:27:41.361Z,79.59
2018-11-27T18:32:45.854Z,79.57
2018-11-27T18:37:51.614Z,79.82
2018-11-27T18:42:56.157Z,79.24
2018-11-27T18:48:02.265Z,79.47
2018-11-27T18:53:07.075Z,79.94
2018-11-27T18:58:11.567Z,79.20
2018-11-27T19:03:16.733Z,79.42
2018-11-27T19:08:25.384Z,79.01
2018-11-27T19:13:29.914Z,78.71
2018-11-27T19:18:34.674Z,79.10
2018-11-27T19:23:39.170Z,79.23
2018-11-27T19:28:44.126Z,80.04
2018-11-27T19:33:49.040Z,80.70
2018-11-27T19:38:53.690Z,81.38
2018-11-27T19:43:58.051Z,81.12
2018-11-27T19:49:02.702Z,81.55
2018-11-27T19:54:07.842Z,81.28
2018-11-27T19:59:12.328Z,81.50
2018-11-27T20:04:17.071Z,82.56
2018-11-27T20:09:22.118Z,82.31
2018-11-27T20:14:26.907Z,83.30
2018-11-27T20:19:31.759Z,83.75
2018-11-27T20:24:36.592Z,83.09
2018-11-27T20:29:41.370Z,83.64
2018-11-27T20:34:46.345Z,83.95
2018-11-27T20:39:55.886Z,83.84
2018-11-27T20:45:00.713Z,83.96
2018-11-27T20:50:12.014Z,83.15
2018-11-27T20:55:11.632Z,83.61
2018-11-27T21:00:21.709Z,83.68
2018-11-27T21:05:26.389Z,84.50
2018-11-27T21:10:40.154Z,84.31
2018-11-27T21:15:45.357Z,84.29
2018-11-27T21:20:49.935Z,84.12
2018-11-27T21:25:56.470Z,84.01
2018-11-27T21:30:59.708Z,84.20
2018-11-27T21:36:04.827Z,84.49
2018-11-27T21:41:09.322Z,83.97
2018-11-27T21:46:14.007Z,84.15
2018-11-27T21:51:19.400Z,83.83
2018-11-27T21:56:24.074Z,83.12
2018-11-27T22:01:29.255Z,83.69
2018-11-27T22:06:33.922Z,83.63
2018-11-27T22:11:38.421Z,83.87
2018-11-27T22:16:42.719Z,84.30
2018-11-27T22:21:47.188Z,84.68
2018-11-27T22:26:51.885Z,85.51
2018-11-27T22:31:56.425Z,85.22
2018-11-27T22:37:00.964Z,84.71
2018-11-27T22:42:05.611Z,84.92
2018-11-27T22:47:19.413Z,85.20
2018-11-27T22:52:24.108Z,85.60
2018-11-27T22:57:28.813Z,85.66
2018-11-27T23:02:33.491Z,86.07
2018-11-27T23:07:41.988Z,86.24
2018-11-27T23:12:46.611Z,85.73
2018-11-27T23:18:00.329Z,86.49
2018-11-27T23:23:05.676Z,86.79
2018-11-27T23:28:29.268Z,87.31
2018-11-27T23:33:34.051Z,86.52
2018-11-27T23:38:38.526Z,85.97
2018-11-27T23:43:43.095Z,86.79
2018-11-27T23:48:48.114Z,86.31
2018-11-27T23:53:52.541Z,86.50
2018-11-27T23:58:57.127Z,85.76
